Aérodrome :
LOGIN :

S'inscrire | Disclaimer

   EN    FR    IT 

 










Légende :    VFR   VFR Marginal   IFR   IFR Intensif   IFR Très Intensif
Visi : 
Plafond : 
>= 8 km
>= 3000ft
5 à 8 km
1000 à 3000 ft
1500m à 5 km
500 à 1000 ft
800 à 1500m
200 à 500 ft
< 800m
< 200 ft
Symboles :   Orages  Brouillard  Fortes neiges  Fortes précipitations  Vent > 20 kt
SIGMETs :   Divers  Orages  Givrage  Turbulence  Onde Orograph.  Cendres Volcan.






- Altitude de l'aérodrome : 160 ft
- Code IATA : LRT


LFRH - Lorient Lann Bihoue

DERNIER METAR :
  • 101030Z AUTO 04010KT 9999 OVC011/// ///CB 09/07 Q1010 TEMPO 4900 SHRA

METARs EXPIRÉS :
  • 101000Z AUTO 03010KT 9999 -RA OVC011 09/07 Q1009 TEMPO 4900 SHRA SCT015TCU
  • 100930Z AUTO 05009KT 9999 -RA BKN009/// OVC049/// ///TCU 09/07 Q1009 TEMPO 4900 SHRA BECMG BKN012 OVC020
  • 100900Z AUTO 04009KT 9999 -RA BKN009 BKN038 BKN046 08/07 Q1009 TEMPO 4900 SHRA SCT015TCU
  • 100830Z AUTO 03012KT 9999 BKN007/// BKN021/// BKN032/// ///TCU 08/07 Q1009 TEMPO 4900 SHRA BKN012 OVC020
  • 100800Z AUTO 03009KT 9999 -RA SCT008 SCT024 BKN040 07/07 Q1009 BECMG BKN012 OVC020

TAF AMD TAF LFRH
Valide du 10 à 07h jusqu'au 11 à 06h UTC


100722Z 1007/1106 04010KT 9999 BKN007 OVC020
TEMPO 1007/1008 -RA BKN010CB
BECMG 1008/1010 BKN012 OVC020
TEMPO 1010/1016 4900 SHRA SCT015TCU
BECMG 1019/1021 CAVOK
BECMG 1101/1103 34010KT



MET'MAP, la Météo Aéronautique d'un coup d'oeil ! - Copyright ORBIFLY Décembre 2007 - Disclaimer

ORBIFLY MET'MAP TEAM :

Programmation & Développement : Alexandra Zaïnal
Sur une idée originale de : Baudouin d'Aumeries
Assistance à la programmation : Marc-Olivier Méhu
Soutien technique & logistique : Manuel Goepfert

Contact : metmap@orbifly.com




SOURCES & CREDITS :

   NOAA